sensor_id;sensor_type;location;lat;lon;timestamp;P1;durP1;ratioP1;P2;durP2;ratioP2
32250;SDS011;41295;48.518;9.206;2023-02-10T00:01:26;67.13;;;29.10;;
32250;SDS011;41295;48.518;9.206;2023-02-10T00:03:30;66.50;;;28.25;;
32250;SDS011;41295;48.518;9.206;2023-02-10T00:05:33;63.97;;;27.52;;
32250;SDS011;41295;48.518;9.206;2023-02-10T00:07:36;58.33;;;27.35;;
32250;SDS011;41295;48.518;9.206;2023-02-10T00:09:40;73.38;;;26.63;;
32250;SDS011;41295;48.518;9.206;2023-02-10T00:11:42;56.38;;;26.60;;
32250;SDS011;41295;48.518;9.206;2023-02-10T00:14:01;58.33;;;27.88;;
32250;SDS011;41295;48.518;9.206;2023-02-10T00:16:05;61.65;;;25.83;;
32250;SDS011;41295;48.518;9.206;2023-02-10T00:18:09;56.92;;;26.70;;
32250;SDS011;41295;48.518;9.206;2023-02-10T00:20:12;57.10;;;25.65;;
32250;SDS011;41295;48.518;9.206;2023-02-10T00:22:15;60.80;;;27.23;;
32250;SDS011;41295;48.518;9.206;2023-02-10T00:24:17;58.60;;;27.00;;
32250;SDS011;41295;48.518;9.206;2023-02-10T00:26:21;54.17;;;24.60;;
32250;SDS011;41295;48.518;9.206;2023-02-10T00:28:24;58.67;;;25.48;;
32250;SDS011;41295;48.518;9.206;2023-02-10T00:30:27;50.25;;;24.75;;
32250;SDS011;41295;48.518;9.206;2023-02-10T00:32:29;52.78;;;26.40;;
32250;SDS011;41295;48.518;9.206;2023-02-10T00:34:32;58.28;;;25.15;;
32250;SDS011;41295;48.518;9.206;2023-02-10T00:36:34;57.97;;;25.67;;
32250;SDS011;41295;48.518;9.206;2023-02-10T00:38:39;58.47;;;24.50;;
32250;SDS011;41295;48.518;9.206;2023-02-10T00:40:43;56.17;;;24.50;;
32250;SDS011;41295;48.518;9.206;2023-02-10T00:42:47;60.63;;;25.73;;
32250;SDS011;41295;48.518;9.206;2023-02-10T00:44:49;56.67;;;25.70;;
32250;SDS011;41295;48.518;9.206;2023-02-10T00:46:52;57.40;;;25.42;;
32250;SDS011;41295;48.518;9.206;2023-02-10T00:48:55;58.83;;;25.90;;
32250;SDS011;41295;48.518;9.206;2023-02-10T00:50:58;56.78;;;26.30;;
32250;SDS011;41295;48.518;9.206;2023-02-10T00:53:00;56.65;;;24.35;;
32250;SDS011;41295;48.518;9.206;2023-02-10T00:55:03;57.50;;;24.60;;
32250;SDS011;41295;48.518;9.206;2023-02-10T00:57:06;55.67;;;24.38;;
32250;SDS011;41295;48.518;9.206;2023-02-10T00:59:10;58.47;;;24.10;;
32250;SDS011;41295;48.518;9.206;2023-02-10T01:01:14;55.65;;;25.08;;
32250;SDS011;41295;48.518;9.206;2023-02-10T01:03:16;52.13;;;23.33;;
32250;SDS011;41295;48.518;9.206;2023-02-10T01:05:19;56.28;;;24.08;;
32250;SDS011;41295;48.518;9.206;2023-02-10T01:07:22;62.95;;;25.45;;
32250;SDS011;41295;48.518;9.206;2023-02-10T01:09:24;55.92;;;25.80;;
32250;SDS011;41295;48.518;9.206;2023-02-10T01:11:27;50.00;;;23.90;;
32250;SDS011;41295;48.518;9.206;2023-02-10T01:13:30;57.08;;;24.73;;
32250;SDS011;41295;48.518;9.206;2023-02-10T01:15:36;58.53;;;24.30;;
32250;SDS011;41295;48.518;9.206;2023-02-10T01:17:43;53.03;;;23.98;;
32250;SDS011;41295;48.518;9.206;2023-02-10T01:19:45;53.05;;;24.95;;
32250;SDS011;41295;48.518;9.206;2023-02-10T01:21:52;54.90;;;25.33;;
32250;SDS011;41295;48.518;9.206;2023-02-10T01:23:55;58.63;;;25.95;;
32250;SDS011;41295;48.518;9.206;2023-02-10T01:25:58;61.25;;;26.92;;
32250;SDS011;41295;48.518;9.206;2023-02-10T01:28:01;68.40;;;27.75;;
32250;SDS011;41295;48.518;9.206;2023-02-10T01:30:04;66.50;;;29.05;;
32250;SDS011;41295;48.518;9.206;2023-02-10T01:32:09;67.18;;;28.52;;
32250;SDS011;41295;48.518;9.206;2023-02-10T01:34:11;62.88;;;25.65;;
32250;SDS011;41295;48.518;9.206;2023-02-10T01:36:14;52.30;;;23.73;;
32250;SDS011;41295;48.518;9.206;2023-02-10T01:38:18;52.25;;;24.38;;
32250;SDS011;41295;48.518;9.206;2023-02-10T01:40:21;52.92;;;25.63;;
32250;SDS011;41295;48.518;9.206;2023-02-10T01:42:24;55.72;;;24.55;;
32250;SDS011;41295;48.518;9.206;2023-02-10T01:47:16;51.13;;;24.08;;
32250;SDS011;41295;48.518;9.206;2023-02-10T01:49:25;57.70;;;24.42;;
32250;SDS011;41295;48.518;9.206;2023-02-10T01:51:32;47.97;;;22.85;;
32250;SDS011;41295;48.518;9.206;2023-02-10T01:53:39;52.85;;;23.33;;
32250;SDS011;41295;48.518;9.206;2023-02-10T01:55:44;58.65;;;24.13;;
32250;SDS011;41295;48.518;9.206;2023-02-10T01:57:50;51.63;;;22.90;;
32250;SDS011;41295;48.518;9.206;2023-02-10T01:59:55;52.20;;;23.20;;
32250;SDS011;41295;48.518;9.206;2023-02-10T02:02:00;52.92;;;22.77;;
32250;SDS011;41295;48.518;9.206;2023-02-10T02:04:09;54.13;;;22.98;;
32250;SDS011;41295;48.518;9.206;2023-02-10T02:06:11;50.78;;;23.55;;
32250;SDS011;41295;48.518;9.206;2023-02-10T02:08:15;50.20;;;22.63;;
32250;SDS011;41295;48.518;9.206;2023-02-10T02:10:21;51.58;;;22.90;;
32250;SDS011;41295;48.518;9.206;2023-02-10T02:12:35;49.63;;;22.65;;
32250;SDS011;41295;48.518;9.206;2023-02-10T02:14:44;57.65;;;22.67;;
32250;SDS011;41295;48.518;9.206;2023-02-10T02:16:59;56.78;;;22.98;;
32250;SDS011;41295;48.518;9.206;2023-02-10T02:19:13;51.50;;;23.13;;
32250;SDS011;41295;48.518;9.206;2023-02-10T02:21:33;57.78;;;22.38;;
32250;SDS011;41295;48.518;9.206;2023-02-10T02:23:58;51.40;;;22.13;;
32250;SDS011;41295;48.518;9.206;2023-02-10T02:28:57;48.33;;;23.42;;
32250;SDS011;41295;48.518;9.206;2023-02-10T02:31:30;51.25;;;24.17;;
32250;SDS011;41295;48.518;9.206;2023-02-10T02:33:43;52.03;;;23.05;;
32250;SDS011;41295;48.518;9.206;2023-02-10T02:35:53;57.53;;;23.70;;
32250;SDS011;41295;48.518;9.206;2023-02-10T02:38:02;54.65;;;24.73;;
32250;SDS011;41295;48.518;9.206;2023-02-10T02:40:05;57.70;;;25.08;;
32250;SDS011;41295;48.518;9.206;2023-02-10T02:42:13;53.42;;;24.25;;
32250;SDS011;41295;48.518;9.206;2023-02-10T02:44:18;57.92;;;23.90;;
32250;SDS011;41295;48.518;9.206;2023-02-10T02:46:22;55.92;;;24.90;;
32250;SDS011;41295;48.518;9.206;2023-02-10T02:48:34;56.20;;;25.58;;
32250;SDS011;41295;48.518;9.206;2023-02-10T02:50:53;54.70;;;24.73;;
32250;SDS011;41295;48.518;9.206;2023-02-10T02:53:09;61.20;;;25.77;;
32250;SDS011;41295;48.518;9.206;2023-02-10T02:55:21;59.15;;;26.05;;
32250;SDS011;41295;48.518;9.206;2023-02-10T02:57:34;59.38;;;25.33;;
32250;SDS011;41295;48.518;9.206;2023-02-10T02:59:46;56.38;;;24.90;;
32250;SDS011;41295;48.518;9.206;2023-02-10T03:01:51;54.30;;;25.92;;
32250;SDS011;41295;48.518;9.206;2023-02-10T03:03:57;60.85;;;26.58;;
32250;SDS011;41295;48.518;9.206;2023-02-10T03:06:01;54.25;;;24.95;;
32250;SDS011;41295;48.518;9.206;2023-02-10T03:08:04;59.15;;;25.80;;
32250;SDS011;41295;48.518;9.206;2023-02-10T03:10:06;60.08;;;25.45;;
32250;SDS011;41295;48.518;9.206;2023-02-10T03:12:09;64.10;;;26.13;;
32250;SDS011;41295;48.518;9.206;2023-02-10T03:14:13;60.30;;;26.02;;
32250;SDS011;41295;48.518;9.206;2023-02-10T03:16:16;54.30;;;24.42;;
32250;SDS011;41295;48.518;9.206;2023-02-10T03:18:18;59.22;;;25.98;;
32250;SDS011;41295;48.518;9.206;2023-02-10T03:20:22;54.10;;;25.40;;
32250;SDS011;41295;48.518;9.206;2023-02-10T03:22:28;59.53;;;26.45;;
32250;SDS011;41295;48.518;9.206;2023-02-10T03:24:31;58.60;;;26.33;;
32250;SDS011;41295;48.518;9.206;2023-02-10T03:26:33;60.25;;;24.40;;
32250;SDS011;41295;48.518;9.206;2023-02-10T03:28:36;59.63;;;25.52;;
32250;SDS011;41295;48.518;9.206;2023-02-10T03:30:39;54.90;;;26.42;;
32250;SDS011;41295;48.518;9.206;2023-02-10T03:32:47;58.05;;;25.80;;
32250;SDS011;41295;48.518;9.206;2023-02-10T03:34:52;58.55;;;26.30;;
32250;SDS011;41295;48.518;9.206;2023-02-10T03:36:56;62.58;;;27.30;;
32250;SDS011;41295;48.518;9.206;2023-02-10T03:38:59;55.22;;;25.00;;
32250;SDS011;41295;48.518;9.206;2023-02-10T03:41:02;63.63;;;27.73;;
32250;SDS011;41295;48.518;9.206;2023-02-10T03:43:04;58.70;;;26.30;;
32250;SDS011;41295;48.518;9.206;2023-02-10T03:45:08;63.20;;;26.20;;
32250;SDS011;41295;48.518;9.206;2023-02-10T03:47:11;60.28;;;25.95;;
32250;SDS011;41295;48.518;9.206;2023-02-10T03:49:13;64.38;;;26.70;;
32250;SDS011;41295;48.518;9.206;2023-02-10T03:51:16;75.68;;;31.30;;
32250;SDS011;41295;48.518;9.206;2023-02-10T03:53:20;99.60;;;37.60;;
32250;SDS011;41295;48.518;9.206;2023-02-10T03:55:22;88.28;;;34.88;;
32250;SDS011;41295;48.518;9.206;2023-02-10T03:57:25;76.95;;;32.03;;
32250;SDS011;41295;48.518;9.206;2023-02-10T03:59:28;73.78;;;30.17;;
32250;SDS011;41295;48.518;9.206;2023-02-10T04:01:30;89.25;;;33.47;;
32250;SDS011;41295;48.518;9.206;2023-02-10T04:03:34;80.15;;;32.63;;
32250;SDS011;41295;48.518;9.206;2023-02-10T04:05:37;69.80;;;30.52;;
32250;SDS011;41295;48.518;9.206;2023-02-10T04:07:40;67.80;;;30.73;;
32250;SDS011;41295;48.518;9.206;2023-02-10T04:09:44;68.65;;;29.90;;
32250;SDS011;41295;48.518;9.206;2023-02-10T04:11:47;68.28;;;30.08;;
32250;SDS011;41295;48.518;9.206;2023-02-10T04:13:49;76.88;;;31.83;;
32250;SDS011;41295;48.518;9.206;2023-02-10T04:15:59;67.53;;;29.85;;
32250;SDS011;41295;48.518;9.206;2023-02-10T04:18:03;84.50;;;33.23;;
32250;SDS011;41295;48.518;9.206;2023-02-10T04:20:06;84.28;;;32.17;;
32250;SDS011;41295;48.518;9.206;2023-02-10T04:22:09;75.82;;;30.65;;
32250;SDS011;41295;48.518;9.206;2023-02-10T04:24:12;79.60;;;31.55;;
32250;SDS011;41295;48.518;9.206;2023-02-10T04:26:16;81.15;;;31.77;;
32250;SDS011;41295;48.518;9.206;2023-02-10T04:28:18;71.90;;;30.40;;
32250;SDS011;41295;48.518;9.206;2023-02-10T04:30:21;81.28;;;31.33;;
32250;SDS011;41295;48.518;9.206;2023-02-10T04:32:24;77.88;;;30.80;;
32250;SDS011;41295;48.518;9.206;2023-02-10T04:34:26;70.88;;;30.48;;
32250;SDS011;41295;48.518;9.206;2023-02-10T04:36:29;67.85;;;28.98;;
32250;SDS011;41295;48.518;9.206;2023-02-10T04:38:32;67.90;;;28.95;;
32250;SDS011;41295;48.518;9.206;2023-02-10T04:40:34;70.55;;;27.30;;
32250;SDS011;41295;48.518;9.206;2023-02-10T04:42:38;60.53;;;25.95;;
32250;SDS011;41295;48.518;9.206;2023-02-10T04:44:41;63.88;;;27.67;;
32250;SDS011;41295;48.518;9.206;2023-02-10T04:46:43;63.78;;;28.70;;
32250;SDS011;41295;48.518;9.206;2023-02-10T04:48:46;65.90;;;27.33;;
32250;SDS011;41295;48.518;9.206;2023-02-10T04:50:49;64.43;;;28.40;;
32250;SDS011;41295;48.518;9.206;2023-02-10T04:52:53;62.45;;;27.38;;
32250;SDS011;41295;48.518;9.206;2023-02-10T04:54:55;64.43;;;27.92;;
32250;SDS011;41295;48.518;9.206;2023-02-10T04:56:58;73.47;;;29.10;;
32250;SDS011;41295;48.518;9.206;2023-02-10T04:59:02;74.82;;;30.15;;
32250;SDS011;41295;48.518;9.206;2023-02-10T05:01:04;64.35;;;28.17;;
32250;SDS011;41295;48.518;9.206;2023-02-10T05:03:07;70.20;;;30.17;;
32250;SDS011;41295;48.518;9.206;2023-02-10T05:05:11;69.75;;;29.30;;
32250;SDS011;41295;48.518;9.206;2023-02-10T05:07:14;70.22;;;28.23;;
32250;SDS011;41295;48.518;9.206;2023-02-10T05:09:16;69.55;;;28.98;;
32250;SDS011;41295;48.518;9.206;2023-02-10T05:11:19;69.80;;;29.80;;
32250;SDS011;41295;48.518;9.206;2023-02-10T05:13:22;66.82;;;28.25;;
32250;SDS011;41295;48.518;9.206;2023-02-10T05:15:25;69.10;;;27.52;;
32250;SDS011;41295;48.518;9.206;2023-02-10T05:17:28;73.25;;;29.25;;
32250;SDS011;41295;48.518;9.206;2023-02-10T05:19:30;62.67;;;27.80;;
32250;SDS011;41295;48.518;9.206;2023-02-10T05:21:34;65.13;;;26.95;;
32250;SDS011;41295;48.518;9.206;2023-02-10T05:23:36;61.67;;;26.75;;
32250;SDS011;41295;48.518;9.206;2023-02-10T05:25:40;59.40;;;27.48;;
32250;SDS011;41295;48.518;9.206;2023-02-10T05:27:43;59.55;;;27.27;;
32250;SDS011;41295;48.518;9.206;2023-02-10T05:29:45;57.58;;;25.20;;
32250;SDS011;41295;48.518;9.206;2023-02-10T05:31:49;59.28;;;26.75;;
32250;SDS011;41295;48.518;9.206;2023-02-10T05:33:52;61.00;;;26.27;;
32250;SDS011;41295;48.518;9.206;2023-02-10T05:35:54;56.80;;;25.95;;
32250;SDS011;41295;48.518;9.206;2023-02-10T05:37:57;64.15;;;26.13;;
32250;SDS011;41295;48.518;9.206;2023-02-10T05:40:03;55.83;;;26.50;;
32250;SDS011;41295;48.518;9.206;2023-02-10T05:42:06;61.63;;;26.92;;
32250;SDS011;41295;48.518;9.206;2023-02-10T05:44:10;60.90;;;26.00;;
32250;SDS011;41295;48.518;9.206;2023-02-10T05:46:12;63.17;;;26.88;;
32250;SDS011;41295;48.518;9.206;2023-02-10T05:48:16;58.58;;;26.80;;
32250;SDS011;41295;48.518;9.206;2023-02-10T05:50:19;58.70;;;24.55;;
32250;SDS011;41295;48.518;9.206;2023-02-10T05:52:21;60.70;;;26.38;;
32250;SDS011;41295;48.518;9.206;2023-02-10T05:54:24;54.15;;;24.77;;
32250;SDS011;41295;48.518;9.206;2023-02-10T05:56:27;56.65;;;25.40;;
32250;SDS011;41295;48.518;9.206;2023-02-10T05:58:29;59.70;;;26.13;;
32250;SDS011;41295;48.518;9.206;2023-02-10T06:00:33;56.75;;;24.98;;
32250;SDS011;41295;48.518;9.206;2023-02-10T06:02:36;57.95;;;25.60;;
32250;SDS011;41295;48.518;9.206;2023-02-10T06:04:40;65.68;;;26.63;;
32250;SDS011;41295;48.518;9.206;2023-02-10T06:06:42;60.60;;;25.67;;
32250;SDS011;41295;48.518;9.206;2023-02-10T06:08:45;58.17;;;26.05;;
32250;SDS011;41295;48.518;9.206;2023-02-10T06:10:47;57.83;;;26.50;;
32250;SDS011;41295;48.518;9.206;2023-02-10T06:12:50;62.97;;;26.83;;
32250;SDS011;41295;48.518;9.206;2023-02-10T06:14:53;67.72;;;26.38;;
32250;SDS011;41295;48.518;9.206;2023-02-10T06:16:55;66.00;;;26.55;;
32250;SDS011;41295;48.518;9.206;2023-02-10T06:18:58;57.65;;;25.98;;
32250;SDS011;41295;48.518;9.206;2023-02-10T06:21:02;55.30;;;25.02;;
32250;SDS011;41295;48.518;9.206;2023-02-10T06:23:05;62.35;;;26.60;;
32250;SDS011;41295;48.518;9.206;2023-02-10T06:25:07;58.10;;;25.75;;
32250;SDS011;41295;48.518;9.206;2023-02-10T06:27:10;58.40;;;26.02;;
32250;SDS011;41295;48.518;9.206;2023-02-10T06:29:13;55.42;;;25.08;;
32250;SDS011;41295;48.518;9.206;2023-02-10T06:31:15;63.33;;;27.17;;
32250;SDS011;41295;48.518;9.206;2023-02-10T06:33:18;65.20;;;27.60;;
32250;SDS011;41295;48.518;9.206;2023-02-10T06:35:21;62.67;;;27.45;;
32250;SDS011;41295;48.518;9.206;2023-02-10T06:37:25;63.22;;;26.77;;
32250;SDS011;41295;48.518;9.206;2023-02-10T06:39:27;71.75;;;28.67;;
32250;SDS011;41295;48.518;9.206;2023-02-10T06:41:32;68.88;;;28.05;;
32250;SDS011;41295;48.518;9.206;2023-02-10T06:43:35;69.80;;;29.42;;
32250;SDS011;41295;48.518;9.206;2023-02-10T06:45:38;66.47;;;28.65;;
32250;SDS011;41295;48.518;9.206;2023-02-10T06:47:40;64.70;;;28.65;;
32250;SDS011;41295;48.518;9.206;2023-02-10T06:49:43;65.13;;;28.77;;
32250;SDS011;41295;48.518;9.206;2023-02-10T06:51:45;71.28;;;30.10;;
32250;SDS011;41295;48.518;9.206;2023-02-10T06:53:49;68.80;;;29.00;;
32250;SDS011;41295;48.518;9.206;2023-02-10T06:55:54;65.30;;;28.67;;
32250;SDS011;41295;48.518;9.206;2023-02-10T06:57:58;67.50;;;29.55;;
32250;SDS011;41295;48.518;9.206;2023-02-10T07:00:01;64.63;;;29.50;;
32250;SDS011;41295;48.518;9.206;2023-02-10T07:02:04;66.43;;;28.17;;
32250;SDS011;41295;48.518;9.206;2023-02-10T07:04:06;71.13;;;29.73;;
32250;SDS011;41295;48.518;9.206;2023-02-10T07:06:09;59.05;;;27.98;;
32250;SDS011;41295;48.518;9.206;2023-02-10T07:08:12;58.83;;;28.15;;
32250;SDS011;41295;48.518;9.206;2023-02-10T07:10:15;69.05;;;28.60;;
32250;SDS011;41295;48.518;9.206;2023-02-10T07:12:18;67.93;;;30.05;;
32250;SDS011;41295;48.518;9.206;2023-02-10T07:14:21;66.75;;;28.60;;
32250;SDS011;41295;48.518;9.206;2023-02-10T07:16:23;71.10;;;29.40;;
32250;SDS011;41295;48.518;9.206;2023-02-10T07:18:26;68.20;;;30.17;;
32250;SDS011;41295;48.518;9.206;2023-02-10T07:20:31;73.22;;;29.85;;
32250;SDS011;41295;48.518;9.206;2023-02-10T07:22:33;62.97;;;28.33;;
32250;SDS011;41295;48.518;9.206;2023-02-10T07:24:36;69.25;;;28.77;;
32250;SDS011;41295;48.518;9.206;2023-02-10T07:26:40;69.47;;;29.70;;
32250;SDS011;41295;48.518;9.206;2023-02-10T07:28:43;69.55;;;27.27;;
32250;SDS011;41295;48.518;9.206;2023-02-10T07:30:45;65.78;;;28.23;;
32250;SDS011;41295;48.518;9.206;2023-02-10T07:32:48;70.40;;;28.50;;
32250;SDS011;41295;48.518;9.206;2023-02-10T07:34:51;68.72;;;29.83;;
32250;SDS011;41295;48.518;9.206;2023-02-10T07:36:53;65.80;;;29.10;;
32250;SDS011;41295;48.518;9.206;2023-02-10T07:38:56;68.13;;;30.80;;
32250;SDS011;41295;48.518;9.206;2023-02-10T07:40:59;67.38;;;29.35;;
32250;SDS011;41295;48.518;9.206;2023-02-10T07:43:03;67.68;;;30.38;;
32250;SDS011;41295;48.518;9.206;2023-02-10T07:45:05;71.22;;;30.85;;
32250;SDS011;41295;48.518;9.206;2023-02-10T07:47:09;65.57;;;30.65;;
32250;SDS011;41295;48.518;9.206;2023-02-10T07:49:12;68.25;;;30.20;;
32250;SDS011;41295;48.518;9.206;2023-02-10T07:51:15;62.10;;;29.70;;
32250;SDS011;41295;48.518;9.206;2023-02-10T07:53:17;74.40;;;31.48;;
32250;SDS011;41295;48.518;9.206;2023-02-10T07:55:20;69.55;;;30.45;;
32250;SDS011;41295;48.518;9.206;2023-02-10T07:57:23;73.38;;;29.20;;
32250;SDS011;41295;48.518;9.206;2023-02-10T07:59:27;66.13;;;29.00;;
32250;SDS011;41295;48.518;9.206;2023-02-10T08:01:29;69.35;;;30.45;;
32250;SDS011;41295;48.518;9.206;2023-02-10T08:03:32;65.50;;;30.13;;
32250;SDS011;41295;48.518;9.206;2023-02-10T08:05:35;66.40;;;30.20;;
32250;SDS011;41295;48.518;9.206;2023-02-10T08:07:37;70.20;;;30.40;;
32250;SDS011;41295;48.518;9.206;2023-02-10T08:09:40;75.00;;;30.58;;
32250;SDS011;41295;48.518;9.206;2023-02-10T08:11:46;64.10;;;30.17;;
32250;SDS011;41295;48.518;9.206;2023-02-10T08:13:48;70.35;;;31.80;;
32250;SDS011;41295;48.518;9.206;2023-02-10T08:15:52;70.03;;;30.05;;
32250;SDS011;41295;48.518;9.206;2023-02-10T08:17:55;69.28;;;31.13;;
32250;SDS011;41295;48.518;9.206;2023-02-10T08:19:59;71.25;;;32.65;;
32250;SDS011;41295;48.518;9.206;2023-02-10T08:22:02;75.68;;;32.92;;
32250;SDS011;41295;48.518;9.206;2023-02-10T08:24:05;65.55;;;29.95;;
32250;SDS011;41295;48.518;9.206;2023-02-10T08:26:08;68.57;;;31.20;;
32250;SDS011;41295;48.518;9.206;2023-02-10T08:28:13;64.53;;;31.02;;
32250;SDS011;41295;48.518;9.206;2023-02-10T08:30:16;67.22;;;31.05;;
32250;SDS011;41295;48.518;9.206;2023-02-10T08:32:21;60.30;;;29.40;;
32250;SDS011;41295;48.518;9.206;2023-02-10T08:34:23;63.53;;;30.02;;
32250;SDS011;41295;48.518;9.206;2023-02-10T08:36:26;67.88;;;30.67;;
32250;SDS011;41295;48.518;9.206;2023-02-10T08:38:29;65.85;;;30.33;;
32250;SDS011;41295;48.518;9.206;2023-02-10T08:40:31;71.53;;;32.78;;
32250;SDS011;41295;48.518;9.206;2023-02-10T08:42:34;70.60;;;31.23;;
32250;SDS011;41295;48.518;9.206;2023-02-10T08:44:37;71.20;;;31.35;;
32250;SDS011;41295;48.518;9.206;2023-02-10T08:46:39;71.85;;;32.67;;
32250;SDS011;41295;48.518;9.206;2023-02-10T08:48:44;67.70;;;30.45;;
32250;SDS011;41295;48.518;9.206;2023-02-10T08:50:46;67.35;;;30.70;;
32250;SDS011;41295;48.518;9.206;2023-02-10T08:52:49;69.18;;;30.40;;
32250;SDS011;41295;48.518;9.206;2023-02-10T08:54:51;66.15;;;29.33;;
32250;SDS011;41295;48.518;9.206;2023-02-10T08:56:54;65.05;;;30.15;;
32250;SDS011;41295;48.518;9.206;2023-02-10T08:58:57;62.03;;;29.52;;
32250;SDS011;41295;48.518;9.206;2023-02-10T09:00:59;70.63;;;30.75;;
32250;SDS011;41295;48.518;9.206;2023-02-10T09:03:02;65.82;;;30.77;;
32250;SDS011;41295;48.518;9.206;2023-02-10T09:05:06;66.32;;;31.02;;
32250;SDS011;41295;48.518;9.206;2023-02-10T09:07:11;70.22;;;30.67;;
32250;SDS011;41295;48.518;9.206;2023-02-10T09:09:15;65.75;;;30.45;;
32250;SDS011;41295;48.518;9.206;2023-02-10T09:11:21;71.13;;;30.83;;
32250;SDS011;41295;48.518;9.206;2023-02-10T09:13:25;66.47;;;29.95;;
32250;SDS011;41295;48.518;9.206;2023-02-10T09:15:27;68.80;;;30.38;;
32250;SDS011;41295;48.518;9.206;2023-02-10T09:17:30;60.55;;;28.92;;
32250;SDS011;41295;48.518;9.206;2023-02-10T09:19:33;60.30;;;29.00;;
32250;SDS011;41295;48.518;9.206;2023-02-10T09:21:37;62.75;;;29.70;;
32250;SDS011;41295;48.518;9.206;2023-02-10T09:23:47;69.75;;;31.23;;
32250;SDS011;41295;48.518;9.206;2023-02-10T09:25:52;72.15;;;32.50;;
32250;SDS011;41295;48.518;9.206;2023-02-10T09:27:55;70.50;;;33.17;;
32250;SDS011;41295;48.518;9.206;2023-02-10T09:29:58;65.78;;;31.25;;
32250;SDS011;41295;48.518;9.206;2023-02-10T09:32:01;64.90;;;31.45;;
32250;SDS011;41295;48.518;9.206;2023-02-10T09:34:04;62.65;;;29.60;;
32250;SDS011;41295;48.518;9.206;2023-02-10T09:36:08;71.22;;;31.45;;
32250;SDS011;41295;48.518;9.206;2023-02-10T09:38:16;66.00;;;31.55;;
32250;SDS011;41295;48.518;9.206;2023-02-10T09:40:20;63.80;;;29.92;;
32250;SDS011;41295;48.518;9.206;2023-02-10T09:42:26;67.88;;;31.20;;
32250;SDS011;41295;48.518;9.206;2023-02-10T09:44:40;64.63;;;29.38;;
32250;SDS011;41295;48.518;9.206;2023-02-10T09:52:12;67.57;;;30.55;;
32250;SDS011;41295;48.518;9.206;2023-02-10T09:54:24;68.72;;;30.70;;
32250;SDS011;41295;48.518;9.206;2023-02-10T09:56:32;66.88;;;30.90;;
32250;SDS011;41295;48.518;9.206;2023-02-10T09:58:35;63.78;;;30.25;;
32250;SDS011;41295;48.518;9.206;2023-02-10T10:00:43;68.03;;;32.30;;
32250;SDS011;41295;48.518;9.206;2023-02-10T10:02:49;67.90;;;30.48;;
32250;SDS011;41295;48.518;9.206;2023-02-10T10:04:54;67.47;;;31.02;;
32250;SDS011;41295;48.518;9.206;2023-02-10T10:06:58;72.65;;;31.67;;
32250;SDS011;41295;48.518;9.206;2023-02-10T10:09:18;67.95;;;32.58;;
32250;SDS011;41295;48.518;9.206;2023-02-10T10:11:35;73.45;;;31.92;;
32250;SDS011;41295;48.518;9.206;2023-02-10T10:13:40;68.85;;;30.75;;
32250;SDS011;41295;48.518;9.206;2023-02-10T10:15:44;72.15;;;33.00;;
32250;SDS011;41295;48.518;9.206;2023-02-10T10:17:55;73.50;;;31.77;;
32250;SDS011;41295;48.518;9.206;2023-02-10T10:20:14;70.20;;;32.30;;
32250;SDS011;41295;48.518;9.206;2023-02-10T10:22:34;68.90;;;32.65;;
32250;SDS011;41295;48.518;9.206;2023-02-10T10:25:03;73.30;;;33.67;;
32250;SDS011;41295;48.518;9.206;2023-02-10T10:27:20;72.40;;;32.90;;
32250;SDS011;41295;48.518;9.206;2023-02-10T10:29:34;68.30;;;31.30;;
32250;SDS011;41295;48.518;9.206;2023-02-10T10:31:45;73.55;;;33.15;;
32250;SDS011;41295;48.518;9.206;2023-02-10T10:33:50;72.35;;;33.08;;
32250;SDS011;41295;48.518;9.206;2023-02-10T10:35:55;72.03;;;32.58;;
32250;SDS011;41295;48.518;9.206;2023-02-10T10:38:07;69.68;;;31.98;;
32250;SDS011;41295;48.518;9.206;2023-02-10T10:42:21;64.85;;;30.13;;
32250;SDS011;41295;48.518;9.206;2023-02-10T10:44:27;70.93;;;31.42;;
32250;SDS011;41295;48.518;9.206;2023-02-10T10:46:34;70.38;;;31.67;;
32250;SDS011;41295;48.518;9.206;2023-02-10T10:48:41;70.43;;;31.85;;
32250;SDS011;41295;48.518;9.206;2023-02-10T10:50:44;76.47;;;30.75;;
32250;SDS011;41295;48.518;9.206;2023-02-10T10:52:49;71.55;;;31.90;;
32250;SDS011;41295;48.518;9.206;2023-02-10T10:54:54;73.40;;;32.85;;
32250;SDS011;41295;48.518;9.206;2023-02-10T10:56:59;68.63;;;31.27;;
32250;SDS011;41295;48.518;9.206;2023-02-10T10:59:10;73.63;;;32.38;;
32250;SDS011;41295;48.518;9.206;2023-02-10T11:01:15;71.60;;;32.85;;
32250;SDS011;41295;48.518;9.206;2023-02-10T11:03:19;66.93;;;30.92;;
32250;SDS011;41295;48.518;9.206;2023-02-10T11:05:22;67.68;;;30.83;;
32250;SDS011;41295;48.518;9.206;2023-02-10T11:07:31;71.97;;;32.72;;
32250;SDS011;41295;48.518;9.206;2023-02-10T11:09:36;63.20;;;31.70;;
32250;SDS011;41295;48.518;9.206;2023-02-10T11:11:42;73.50;;;31.05;;
32250;SDS011;41295;48.518;9.206;2023-02-10T11:13:50;76.88;;;33.38;;
32250;SDS011;41295;48.518;9.206;2023-02-10T11:15:59;69.18;;;32.55;;
32250;SDS011;41295;48.518;9.206;2023-02-10T11:18:05;69.70;;;32.83;;
32250;SDS011;41295;48.518;9.206;2023-02-10T11:20:20;72.32;;;33.15;;
32250;SDS011;41295;48.518;9.206;2023-02-10T11:22:25;74.97;;;32.50;;
32250;SDS011;41295;48.518;9.206;2023-02-10T11:24:29;73.53;;;34.03;;
32250;SDS011;41295;48.518;9.206;2023-02-10T11:26:34;72.78;;;34.05;;
32250;SDS011;41295;48.518;9.206;2023-02-10T11:28:36;71.28;;;33.10;;
32250;SDS011;41295;48.518;9.206;2023-02-10T11:30:40;69.85;;;32.67;;
32250;SDS011;41295;48.518;9.206;2023-02-10T11:32:45;66.40;;;31.90;;
32250;SDS011;41295;48.518;9.206;2023-02-10T11:34:49;68.18;;;30.27;;
32250;SDS011;41295;48.518;9.206;2023-02-10T11:36:53;60.63;;;29.02;;
32250;SDS011;41295;48.518;9.206;2023-02-10T11:38:59;63.60;;;29.35;;
32250;SDS011;41295;48.518;9.206;2023-02-10T11:41:03;54.58;;;27.25;;
32250;SDS011;41295;48.518;9.206;2023-02-10T11:43:10;57.30;;;26.98;;
32250;SDS011;41295;48.518;9.206;2023-02-10T11:45:16;58.17;;;27.65;;
32250;SDS011;41295;48.518;9.206;2023-02-10T11:47:22;59.20;;;26.50;;
32250;SDS011;41295;48.518;9.206;2023-02-10T11:49:25;57.63;;;26.10;;
32250;SDS011;41295;48.518;9.206;2023-02-10T11:51:32;59.15;;;25.60;;
32250;SDS011;41295;48.518;9.206;2023-02-10T11:53:36;55.75;;;24.63;;
32250;SDS011;41295;48.518;9.206;2023-02-10T11:55:41;53.40;;;23.75;;
32250;SDS011;41295;48.518;9.206;2023-02-10T11:57:52;45.28;;;21.00;;
32250;SDS011;41295;48.518;9.206;2023-02-10T12:00:19;59.03;;;25.30;;
32250;SDS011;41295;48.518;9.206;2023-02-10T12:02:33;54.00;;;23.85;;
32250;SDS011;41295;48.518;9.206;2023-02-10T12:05:08;55.50;;;23.85;;
32250;SDS011;41295;48.518;9.206;2023-02-10T12:07:24;54.55;;;26.15;;
32250;SDS011;41295;48.518;9.206;2023-02-10T12:09:36;53.97;;;26.58;;
32250;SDS011;41295;48.518;9.206;2023-02-10T12:11:46;53.35;;;25.08;;
32250;SDS011;41295;48.518;9.206;2023-02-10T12:13:59;51.75;;;23.60;;
32250;SDS011;41295;48.518;9.206;2023-02-10T12:16:11;54.25;;;22.58;;
32250;SDS011;41295;48.518;9.206;2023-02-10T12:20:38;49.17;;;21.95;;
32250;SDS011;41295;48.518;9.206;2023-02-10T12:23:00;56.85;;;24.52;;
32250;SDS011;41295;48.518;9.206;2023-02-10T12:25:15;52.42;;;23.90;;
32250;SDS011;41295;48.518;9.206;2023-02-10T12:27:22;50.92;;;22.42;;